Time;durP1;ratioP1;P1;durP2;ratioP2;P2;SDS_P1;SDS_P2;PMS_P1;PMS_P2;Temp;Humidity;BMP_temperature;BMP_pressure;BME280_temperature;BME280_humidity;BME280_pressure;Samples;Min_cycle;Max_cycle;Signal;HPM_P1;HPM_P2
2022/04/19 00:00:27;;;;;;;3.27;2.40;;;20.20;35.20;;;;;;1955913;72;22252;-57
2022/04/19 00:02:54;;;;;;;3.42;2.45;;;20.20;35.20;;;;;;1955872;72;21133;-58
2022/04/19 00:05:22;;;;;;;5.12;2.75;;;20.20;35.20;;;;;;1956455;72;21171;-55
2022/04/19 00:07:49;;;;;;;3.05;2.62;;;20.20;35.20;;;;;;1956176;72;21081;-57
2022/04/19 00:10:16;;;;;;;3.47;2.60;;;20.20;35.20;;;;;;1965599;72;21146;-57
2022/04/19 00:12:44;;;;;;;5.72;2.92;;;20.20;35.20;;;;;;1953800;72;21085;-57
2022/04/19 00:15:11;;;;;;;4.12;2.45;;;20.10;35.10;;;;;;1952585;73;21089;-57
2022/04/19 00:17:38;;;;;;;3.77;2.42;;;20.10;35.10;;;;;;1952245;73;21094;-58
2022/04/19 00:20:06;;;;;;;2.72;2.35;;;20.10;35.10;;;;;;1899771;75;21174;-57
2022/04/19 00:22:34;;;;;;;7.28;3.65;;;20.10;35.20;;;;;;1863857;76;21227;-56
2022/04/19 00:25:01;;;;;;;3.72;2.42;;;20.10;35.10;;;;;;1864039;76;21082;-58
2022/04/19 00:27:28;;;;;;;4.60;2.72;;;20.10;35.20;;;;;;1863593;76;21161;-56
2022/04/19 00:29:55;;;;;;;3.35;2.40;;;20.10;35.10;;;;;;1873817;76;21098;-57
2022/04/19 00:32:23;;;;;;;4.12;2.92;;;20.10;35.10;;;;;;1918092;75;21213;-57
2022/04/19 00:34:51;;;;;;;2.70;2.20;;;20.10;35.00;;;;;;1918311;75;21077;-57
2022/04/19 00:37:19;;;;;;;2.80;2.17;;;20.10;35.10;;;;;;1918608;75;21170;-57
2022/04/19 00:39:46;;;;;;;3.62;2.87;;;20.20;35.10;;;;;;1918221;75;21108;-55
2022/04/19 00:42:14;;;;;;;3.20;2.50;;;20.10;35.20;;;;;;1918279;74;21080;-57
2022/04/19 00:44:41;;;;;;;3.90;2.33;;;20.10;35.10;;;;;;1918475;75;21089;-55
2022/04/19 00:47:09;;;;;;;2.75;2.22;;;20.10;35.20;;;;;;1914004;73;21085;-57
2022/04/19 00:49:42;;;;;;;2.77;2.40;;;20.10;35.10;;;;;;1918406;75;21085;-57
2022/04/19 00:52:10;;;;;;;6.75;2.70;;;20.10;35.20;;;;;;1917711;75;21096;-57
2022/04/19 00:54:37;;;;;;;5.37;2.55;;;20.10;35.20;;;;;;1917262;75;21066;-55
2022/04/19 00:57:05;;;;;;;4.10;2.42;;;20.10;35.20;;;;;;1917312;75;21170;-57
2022/04/19 00:59:33;;;;;;;5.17;2.45;;;20.10;35.20;;;;;;1918401;74;21201;-58
2022/04/19 01:02:01;;;;;;;3.25;2.50;;;20.10;35.20;;;;;;1918294;75;21633;-58
2022/04/19 01:04:29;;;;;;;4.08;2.27;;;20.10;35.10;;;;;;1917956;75;21395;-59
2022/04/19 01:06:59;;;;;;;5.90;2.50;;;20.10;35.20;;;;;;1917487;75;21120;-58
2022/04/19 01:09:26;;;;;;;2.80;2.30;;;20.10;35.20;;;;;;1917787;75;21105;-60
2022/04/19 01:14:39;;;;;;;3.47;2.67;;;20.10;35.20;;;;;;1918585;75;21184;-56
2022/04/19 01:17:07;;;;;;;2.60;2.35;;;20.10;35.20;;;;;;1918277;75;21084;-58
2022/04/19 01:19:39;;;;;;;2.60;2.37;;;20.10;35.20;;;;;;1917647;75;21088;-61
2022/04/19 01:22:07;;;;;;;3.02;2.10;;;20.10;35.20;;;;;;1917565;75;21179;-57
2022/04/19 01:24:36;;;;;;;4.55;2.87;;;20.10;35.20;;;;;;1918574;75;21185;-57
2022/04/19 01:27:03;;;;;;;3.12;2.55;;;20.10;35.20;;;;;;1917780;75;21093;-56
2022/04/19 01:29:32;;;;;;;3.52;2.62;;;20.10;35.30;;;;;;1918237;75;21104;-55
2022/04/19 01:32:01;;;;;;;4.42;2.50;;;20.10;35.20;;;;;;1917851;75;21109;-55
2022/04/19 01:34:28;;;;;;;4.12;2.65;;;20.10;35.30;;;;;;1917785;75;21163;-57
2022/04/19 01:36:56;;;;;;;3.27;2.40;;;20.10;35.30;;;;;;1918055;75;21186;-57
2022/04/19 01:42:09;;;;;;;2.87;2.52;;;20.10;35.60;;;;;;1910596;73;21670;-57
2022/04/19 01:44:38;;;;;;;3.22;2.67;;;20.00;35.20;;;;;;1917411;74;21070;-57
2022/04/19 01:47:08;;;;;;;2.42;2.10;;;20.00;35.30;;;;;;1917571;74;21125;-57
2022/04/19 01:49:36;;;;;;;4.30;2.75;;;20.00;35.20;;;;;;1917973;74;21117;-57
2022/04/19 01:52:03;;;;;;;2.95;2.40;;;20.10;35.40;;;;;;1917614;75;21090;-57
2022/04/19 01:54:31;;;;;;;3.45;2.58;;;20.00;35.30;;;;;;1917877;75;21169;-58
2022/04/19 01:56:59;;;;;;;3.65;2.40;;;20.00;35.30;;;;;;1918246;75;21093;-57
2022/04/19 01:59:26;;;;;;;3.08;2.52;;;20.10;35.50;;;;;;1918593;74;21077;-58
2022/04/19 02:01:54;;;;;;;3.55;2.85;;;20.00;35.40;;;;;;1918321;75;21173;-57
2022/04/19 02:04:21;;;;;;;4.00;2.62;;;20.00;35.40;;;;;;1918323;75;21571;-59
2022/04/19 02:06:48;;;;;;;3.27;2.33;;;20.00;35.40;;;;;;1918385;75;21128;-58
2022/04/19 02:09:16;;;;;;;3.47;2.50;;;20.00;35.40;;;;;;1918554;75;21187;-60
2022/04/19 02:11:43;;;;;;;3.58;2.70;;;20.00;35.30;;;;;;1918397;75;21104;-57
2022/04/19 02:14:10;;;;;;;2.85;2.35;;;20.00;35.40;;;;;;1918456;73;21133;-57
2022/04/19 02:16:38;;;;;;;3.05;2.25;;;20.00;35.30;;;;;;1918479;75;21207;-58
2022/04/19 02:19:05;;;;;;;2.42;2.22;;;20.00;35.30;;;;;;1918496;74;21171;-57
2022/04/19 02:21:32;;;;;;;3.00;2.10;;;20.00;35.30;;;;;;1918419;75;21390;-56
2022/04/19 02:24:00;;;;;;;3.55;2.30;;;20.00;35.30;;;;;;1918105;75;21528;-58
2022/04/19 02:26:28;;;;;;;3.42;2.55;;;20.00;35.40;;;;;;1918036;75;21100;-58
2022/04/19 02:28:58;;;;;;;2.75;2.37;;;20.00;35.40;;;;;;1875181;76;21127;-58
2022/04/19 02:31:25;;;;;;;5.00;2.55;;;20.00;35.40;;;;;;1917969;74;21217;-57
2022/04/19 02:33:53;;;;;;;2.75;2.42;;;20.00;35.50;;;;;;1918417;74;21598;-58
2022/04/19 02:36:21;;;;;;;2.70;2.40;;;20.00;35.40;;;;;;1917381;73;21599;-55
2022/04/19 02:38:48;;;;;;;3.65;2.65;;;20.00;35.30;;;;;;1917996;74;21626;-57
2022/04/19 02:41:15;;;;;;;3.10;2.50;;;20.00;35.50;;;;;;1918022;75;21145;-57
2022/04/19 02:43:43;;;;;;;3.58;2.62;;;20.00;35.50;;;;;;1918257;75;21802;-58
2022/04/19 02:46:10;;;;;;;2.60;2.33;;;19.90;35.40;;;;;;1918312;75;21112;-57
2022/04/19 02:48:39;;;;;;;4.65;2.50;;;19.90;35.40;;;;;;1918436;75;21225;-57
2022/04/19 02:51:06;;;;;;;3.95;2.40;;;19.90;35.40;;;;;;1918501;75;21206;-57
2022/04/19 02:53:33;;;;;;;3.12;2.35;;;19.90;35.40;;;;;;1918385;75;21610;-56
2022/04/19 02:56:03;;;;;;;2.90;2.33;;;19.90;35.40;;;;;;1918405;75;21149;-57
2022/04/19 02:58:30;;;;;;;2.65;2.22;;;19.90;35.50;;;;;;1918444;74;21116;-56
2022/04/19 03:00:59;;;;;;;3.27;2.22;;;19.90;35.50;;;;;;1918589;75;21165;-55
2022/04/19 03:03:28;;;;;;;2.85;2.42;;;19.90;35.40;;;;;;1918447;74;21220;-57
2022/04/19 03:05:57;;;;;;;3.87;2.60;;;19.90;35.50;;;;;;1918621;75;21109;-57
2022/04/19 03:08:28;;;;;;;2.62;2.40;;;19.90;35.40;;;;;;1918449;74;21100;-57
2022/04/19 03:10:55;;;;;;;;;;;19.90;35.40;;;;;;1921532;74;21077;-57
2022/04/19 03:13:22;;;;;;;3.42;2.50;;;19.90;35.50;;;;;;1915989;74;20222;-56
2022/04/19 03:15:50;;;;;;;3.42;2.45;;;19.90;35.50;;;;;;1893471;75;21034;-55
2022/04/19 03:18:17;;;;;;;3.02;2.50;;;19.90;35.40;;;;;;1893333;75;21114;-57
2022/04/19 03:20:46;;;;;;;2.62;2.17;;;19.90;35.80;;;;;;1893231;75;21187;-57
2022/04/19 03:28:47;;;;;;;3.83;2.70;;;19.90;35.50;;;;;;1895315;73;21126;-57
2022/04/19 03:31:14;;;;;;;3.05;2.40;;;19.90;35.50;;;;;;1910421;74;21591;-56
2022/04/19 03:33:42;;;;;;;2.98;2.37;;;19.90;35.50;;;;;;1942687;72;21203;-57
2022/04/19 03:36:09;;;;;;;3.40;2.90;;;19.90;35.50;;;;;;1943126;72;21159;-56
2022/04/19 03:38:37;;;;;;;5.25;2.85;;;19.90;35.50;;;;;;1950672;72;21117;-57
2022/04/19 03:41:04;;;;;;;3.17;2.45;;;19.90;35.50;;;;;;1943000;72;21070;-55
2022/04/19 03:43:32;;;;;;;4.92;2.80;;;19.90;35.50;;;;;;1942459;72;21062;-57
2022/04/19 03:46:00;;;;;;;4.22;2.50;;;19.90;35.50;;;;;;1942262;72;21179;-57
2022/04/19 03:48:28;;;;;;;3.80;2.58;;;19.90;35.50;;;;;;1943030;72;21196;-57
2022/04/19 03:50:55;;;;;;;3.65;2.45;;;19.90;35.40;;;;;;1943286;72;21083;-56
2022/04/19 03:53:22;;;;;;;3.08;2.30;;;19.90;35.50;;;;;;1943372;72;21210;-57
2022/04/19 03:55:50;;;;;;;3.50;2.80;;;19.90;36.00;;;;;;1943371;72;21079;-55
2022/04/19 03:58:17;;;;;;;4.03;2.85;;;19.90;35.50;;;;;;1952839;72;21113;-57
2022/04/19 04:00:46;;;;;;;3.72;2.37;;;19.90;35.50;;;;;;1943287;72;21175;-55
2022/04/19 04:03:13;;;;;;;3.02;2.30;;;19.80;35.40;;;;;;1943154;72;21125;-57
2022/04/19 04:05:40;;;;;;;4.47;2.65;;;19.80;35.40;;;;;;1943089;72;21086;-57
2022/04/19 04:08:08;;;;;;;3.55;2.52;;;19.90;35.40;;;;;;1945706;72;21106;-57
2022/04/19 04:10:35;;;;;;;3.52;2.83;;;19.80;35.40;;;;;;1942858;72;21537;-56
2022/04/19 04:13:04;;;;;;;3.15;2.75;;;19.80;35.40;;;;;;1942507;72;21191;-56
2022/04/19 04:15:31;;;;;;;3.15;2.60;;;19.90;35.40;;;;;;1942449;72;21215;-56
2022/04/19 04:17:59;;;;;;;3.72;2.85;;;19.90;35.50;;;;;;1942782;72;21191;-57
2022/04/19 04:20:26;;;;;;;3.05;2.20;;;19.90;35.50;;;;;;1943154;72;21077;-57
2022/04/19 04:22:53;;;;;;;2.50;2.20;;;19.80;35.40;;;;;;1976577;72;21729;-57
2022/04/19 04:25:21;;;;;;;3.08;2.45;;;19.80;35.40;;;;;;1955067;72;21086;-57
2022/04/19 04:27:48;;;;;;;3.05;2.27;;;19.90;35.50;;;;;;1944907;72;21015;-57
2022/04/19 04:30:15;;;;;;;2.83;2.33;;;19.80;35.40;;;;;;1942985;72;21093;-57
2022/04/19 04:32:43;;;;;;;4.12;2.60;;;19.80;36.00;;;;;;1942879;72;21133;-57
2022/04/19 04:35:10;;;;;;;3.17;2.87;;;19.80;35.40;;;;;;1943213;72;21078;-56
2022/04/19 04:37:38;;;;;;;3.77;2.55;;;19.80;35.30;;;;;;1964429;72;21521;-58
2022/04/19 04:40:06;;;;;;;4.33;2.87;;;19.80;35.40;;;;;;1946104;72;21090;-58
2022/04/19 04:42:33;;;;;;;4.45;2.35;;;19.80;35.30;;;;;;1943208;72;21126;-57
2022/04/19 04:45:00;;;;;;;3.20;2.25;;;19.80;35.30;;;;;;1943096;72;21180;-58
2022/04/19 04:50:13;;;;;;;3.12;2.77;;;19.90;35.40;;;;;;1943217;72;21241;-57
2022/04/19 04:52:41;;;;;;;3.40;2.30;;;19.80;35.40;;;;;;1942996;72;21141;-58
2022/04/19 04:55:08;;;;;;;5.75;2.70;;;19.90;35.40;;;;;;1943147;72;21071;-56
2022/04/19 04:57:36;;;;;;;3.87;2.52;;;19.90;35.30;;;;;;1949861;72;21172;-58
2022/04/19 05:00:04;;;;;;;4.33;2.47;;;19.90;35.40;;;;;;1943173;72;21163;-56
2022/04/19 05:02:31;;;;;;;5.42;2.50;;;19.90;35.40;;;;;;1942942;72;22062;-57
2022/04/19 05:04:59;;;;;;;5.12;2.45;;;19.90;35.40;;;;;;1943049;72;21098;-58
2022/04/19 05:07:26;;;;;;;2.50;2.30;;;19.90;35.40;;;;;;1943058;72;21105;-57
2022/04/19 05:09:54;;;;;;;3.05;2.05;;;19.90;35.40;;;;;;1947099;72;21629;-57
2022/04/19 05:12:21;;;;;;;3.50;2.92;;;19.90;35.40;;;;;;1943042;72;21141;-58
2022/04/19 05:14:48;;;;;;;4.67;2.85;;;19.90;35.00;;;;;;1956300;72;21137;-58
2022/04/19 05:17:16;;;;;;;3.52;2.62;;;19.90;35.50;;;;;;1954018;72;21078;-59
2022/04/19 05:19:43;;;;;;;3.85;2.70;;;19.90;35.40;;;;;;1942794;72;21113;-57
2022/04/19 05:22:10;;;;;;;3.85;2.67;;;19.90;35.40;;;;;;1976621;72;21114;-57
2022/04/19 05:24:38;;;;;;;3.30;2.90;;;19.90;35.40;;;;;;1976698;72;21554;-58
2022/04/19 05:27:05;;;;;;;3.87;2.72;;;19.90;35.40;;;;;;1963034;72;21094;-59
2022/04/19 05:29:32;;;;;;;4.95;2.70;;;19.90;35.30;;;;;;1942942;72;22219;-56
2022/04/19 05:32:00;;;;;;;4.70;2.80;;;19.90;35.40;;;;;;1943119;72;21155;-58
2022/04/19 05:34:27;;;;;;;4.25;2.50;;;19.90;35.40;;;;;;1941524;72;21667;-57
2022/04/19 05:36:54;;;;;;;3.42;2.60;;;19.90;35.40;;;;;;1942621;72;21086;-58
2022/04/19 05:39:22;;;;;;;4.17;3.17;;;19.90;35.40;;;;;;1953894;72;21501;-57
2022/04/19 05:41:49;;;;;;;5.75;2.65;;;19.90;35.40;;;;;;1943113;72;22196;-57
2022/04/19 05:44:17;;;;;;;4.85;2.92;;;19.90;35.30;;;;;;1942185;72;21218;-56
2022/04/19 05:46:44;;;;;;;4.50;3.10;;;19.90;35.40;;;;;;1942460;72;21072;-58
2022/04/19 05:49:11;;;;;;;4.00;2.50;;;19.90;35.40;;;;;;1942275;72;21155;-58
2022/04/19 05:51:39;;;;;;;3.37;2.67;;;19.90;35.50;;;;;;1942967;72;21058;-58
2022/04/19 05:54:06;;;;;;;4.00;3.10;;;19.90;35.40;;;;;;1942669;72;21133;-57
2022/04/19 05:56:33;;;;;;;3.30;2.47;;;19.90;35.40;;;;;;1951149;72;21044;-58
2022/04/19 05:59:01;;;;;;;2.87;2.58;;;20.00;35.40;;;;;;1946782;72;21191;-58
2022/04/19 06:04:51;;;;;;;4.00;2.83;;;20.00;35.50;;;;;;1943139;72;21051;-58
2022/04/19 06:06:42;;;;;;;4.25;2.85;;;20.00;35.40;;;;;;1942755;72;21130;-58
2022/04/19 06:09:12;;;;;;;5.47;3.22;;;20.00;35.40;;;;;;1948579;72;21110;-58
2022/04/19 06:11:39;;;;;;;3.95;2.65;;;20.00;35.50;;;;;;1957267;72;21113;-58
2022/04/19 06:14:06;;;;;;;4.03;2.70;;;20.00;35.50;;;;;;1942935;72;21195;-57
2022/04/19 06:16:33;;;;;;;5.03;2.87;;;20.00;35.40;;;;;;1951441;73;21157;-57
2022/04/19 06:19:01;;;;;;;5.92;2.92;;;20.00;35.70;;;;;;1899735;75;21089;-57
2022/04/19 06:21:28;;;;;;;4.72;2.95;;;20.00;35.50;;;;;;1863248;76;21152;-58
2022/04/19 06:23:55;;;;;;;5.08;2.77;;;20.00;35.60;;;;;;1873595;76;21149;-56
2022/04/19 06:26:22;;;;;;;4.12;2.77;;;20.00;35.50;;;;;;1917456;75;21122;-58
2022/04/19 06:28:50;;;;;;;4.42;3.12;;;20.00;35.60;;;;;;1875292;76;21125;-57
2022/04/19 06:31:18;;;;;;;4.37;2.83;;;20.00;35.50;;;;;;1918511;75;21073;-58
2022/04/19 06:33:45;;;;;;;4.00;2.70;;;20.00;35.50;;;;;;1917898;75;21136;-56
2022/04/19 06:36:12;;;;;;;5.67;3.05;;;20.00;35.80;;;;;;1917697;75;21149;-58
2022/04/19 06:38:40;;;;;;;4.78;2.77;;;20.00;35.50;;;;;;1908859;74;21088;-59
2022/04/19 06:41:09;;;;;;;3.67;2.65;;;20.00;35.50;;;;;;1878919;76;21100;-55
2022/04/19 06:43:37;;;;;;;4.15;2.90;;;20.00;35.50;;;;;;1910533;75;21206;-57
2022/04/19 06:46:04;;;;;;;5.30;2.55;;;20.10;35.50;;;;;;1873794;76;21141;-58
2022/04/19 06:48:31;;;;;;;3.22;2.50;;;20.10;35.40;;;;;;1916225;75;21122;-57
2022/04/19 06:51:00;;;;;;;4.67;2.72;;;20.10;35.50;;;;;;1907911;75;21170;-58
2022/04/19 06:53:30;;;;;;;7.83;3.35;;;20.10;35.60;;;;;;1878013;76;21710;-57
2022/04/19 06:55:58;;;;;;;3.20;2.35;;;20.10;35.60;;;;;;1910372;75;21122;-57
2022/04/19 06:58:25;;;;;;;3.92;2.85;;;20.20;35.60;;;;;;1919742;74;21581;-58
2022/04/19 07:00:52;;;;;;;4.85;2.95;;;20.20;35.60;;;;;;1877417;76;21085;-58
2022/04/19 07:03:20;;;;;;;6.10;3.12;;;20.20;35.50;;;;;;1911098;75;21652;-58
2022/04/19 07:05:47;;;;;;;4.30;2.65;;;20.20;35.60;;;;;;1905287;74;21067;-57
2022/04/19 07:08:14;;;;;;;6.92;3.12;;;20.20;35.70;;;;;;1909433;75;21661;-57
2022/04/19 07:10:42;;;;;;;4.60;3.05;;;20.20;35.90;;;;;;1910517;74;21085;-59
2022/04/19 07:13:10;;;;;;;5.50;2.47;;;20.20;35.70;;;;;;1911519;75;21097;-58
2022/04/19 07:15:37;;;;;;;5.03;2.80;;;20.30;36.00;;;;;;1906063;74;21683;-57
2022/04/19 07:18:04;;;;;;;4.55;3.30;;;20.20;35.90;;;;;;1891854;75;21178;-58
2022/04/19 07:28:48;;;;;;;6.83;2.60;;;20.30;36.00;;;;;;1907814;75;21693;-58
2022/04/19 07:31:15;;;;;;;4.42;2.83;;;20.30;35.60;;;;;;1902550;74;21082;-57
2022/04/19 07:33:43;;;;;;;8.68;2.87;;;20.30;35.90;;;;;;1941818;72;21619;-57
2022/04/19 07:36:11;;;;;;;4.20;2.62;;;20.30;36.00;;;;;;1941995;72;21102;-57
2022/04/19 07:38:38;;;;;;;4.20;2.87;;;20.30;36.10;;;;;;1944195;72;21132;-59
2022/04/19 07:41:06;;;;;;;6.60;2.83;;;20.30;36.00;;;;;;1942364;72;22229;-57
2022/04/19 07:43:34;;;;;;;3.15;2.37;;;20.30;36.00;;;;;;1942429;72;22257;-58
2022/04/19 07:46:04;;;;;;;3.83;2.40;;;20.30;36.00;;;;;;1942584;72;21070;-58
2022/04/19 07:48:32;;;;;;;7.05;2.72;;;20.30;36.10;;;;;;1942837;72;21121;-57
2022/04/19 07:50:59;;;;;;;9.25;2.75;;;20.30;36.20;;;;;;1943301;72;21105;-57
2022/04/19 07:53:27;;;;;;;12.37;3.20;;;20.30;36.10;;;;;;1943240;72;21203;-58
2022/04/19 07:55:58;;;;;;;3.00;2.52;;;20.30;36.10;;;;;;1943048;72;21109;-59
2022/04/19 07:58:23;;;;;;;4.97;3.55;;;20.30;36.20;;;;;;1942987;72;21216;-57
2022/04/19 08:00:50;;;;;;;3.70;2.75;;;20.40;36.40;;;;;;1952190;72;21179;-60
2022/04/19 08:03:18;;;;;;;6.08;2.95;;;20.40;36.30;;;;;;1942808;72;21083;-57
2022/04/19 08:05:45;;;;;;;4.87;2.83;;;20.40;36.40;;;;;;1943412;72;21466;-58
2022/04/19 08:08:12;;;;;;;4.65;2.67;;;20.40;36.30;;;;;;1947333;72;21153;-57
2022/04/19 08:10:39;;;;;;;4.42;2.58;;;20.40;36.50;;;;;;1947148;72;21171;-58
2022/04/19 08:13:07;;;;;;;3.65;2.52;;;20.40;36.40;;;;;;1943323;72;21252;-58
2022/04/19 08:15:34;;;;;;;3.47;2.50;;;20.40;36.50;;;;;;1943072;72;21038;-57
2022/04/19 08:18:01;;;;;;;6.58;2.67;;;20.40;36.50;;;;;;1943018;72;21113;-60
2022/04/19 08:20:29;;;;;;;4.22;2.87;;;20.40;36.70;;;;;;1943216;72;21182;-58
2022/04/19 08:22:56;;;;;;;5.53;3.08;;;20.40;36.50;;;;;;1943271;72;21121;-57
2022/04/19 08:25:23;;;;;;;5.50;2.80;;;20.40;36.50;;;;;;1943278;72;21094;-60
2022/04/19 08:27:52;;;;;;;3.17;2.37;;;20.40;36.50;;;;;;1953446;72;21352;-58
2022/04/19 08:30:19;;;;;;;4.22;2.95;;;20.40;36.60;;;;;;1943163;72;21063;-57
2022/04/19 08:32:46;;;;;;;5.28;2.35;;;20.40;36.60;;;;;;1942904;72;22176;-58
2022/04/19 08:35:14;;;;;;;3.92;2.80;;;20.50;36.90;;;;;;1947956;72;21098;-57
2022/04/19 08:37:41;;;;;;;6.30;2.85;;;20.40;36.80;;;;;;1976442;72;21667;-59
2022/04/19 08:40:10;;;;;;;4.12;2.85;;;20.50;37.00;;;;;;1945742;72;21129;-58
2022/04/19 08:42:38;;;;;;;6.42;2.40;;;20.50;36.90;;;;;;1958723;72;21709;-58
2022/04/19 08:45:07;;;;;;;4.80;2.33;;;20.50;37.00;;;;;;1951314;72;21640;-58
2022/04/19 08:47:38;;;;;;;6.85;2.58;;;20.50;37.00;;;;;;1962501;72;21114;-59
2022/04/19 08:50:07;;;;;;;12.30;2.95;;;20.50;37.20;;;;;;1943042;72;21195;-58
2022/04/19 08:52:35;;;;;;;10.32;3.20;;;20.50;37.20;;;;;;1943019;72;21141;-61
2022/04/19 08:57:47;;;;;;;8.60;2.42;;;20.60;37.60;;;;;;1953618;72;21252;-57
2022/04/19 09:00:15;;;;;;;13.13;3.00;;;20.60;37.70;;;;;;1942817;72;21172;-58
2022/04/19 09:02:42;;;;;;;9.58;3.50;;;20.60;37.80;;;;;;1942597;72;21137;-58
2022/04/19 09:05:23;;;;;;;12.65;3.12;;;20.60;37.60;;;;;;1942723;72;21113;-58
2022/04/19 09:07:52;;;;;;;6.92;3.12;;;20.50;35.30;;;;;;1942797;72;21090;-58
2022/04/19 09:10:32;;;;;;;6.08;3.40;;;19.90;34.00;;;;;;1952370;72;21183;-57
2022/04/19 09:13:07;;;;;;;6.72;3.30;;;19.60;34.50;;;;;;1957798;72;21669;-57
2022/04/19 09:15:41;;;;;;;4.25;3.40;;;19.40;34.70;;;;;;1976435;72;21098;-57
2022/04/19 09:18:33;;;;;;;7.25;4.12;;;19.30;34.50;;;;;;1985953;72;21121;-58
2022/04/19 09:21:02;;;;;;;9.43;2.90;;;19.30;34.20;;;;;;1986913;72;21116;-55
2022/04/19 09:23:30;;;;;;;9.13;2.70;;;19.30;33.90;;;;;;1987160;72;21121;-56
2022/04/19 09:25:59;;;;;;;5.70;2.98;;;19.30;34.20;;;;;;1982751;71;21199;-57
2022/04/19 09:28:26;;;;;;;7.70;2.30;;;19.30;33.90;;;;;;1965966;72;21096;-58
2022/04/19 09:30:58;;;;;;;5.35;2.62;;;19.40;34.70;;;;;;1985541;72;21548;-58
2022/04/19 09:33:26;;;;;;;3.55;2.33;;;19.20;33.60;;;;;;1987699;72;21097;-58
2022/04/19 09:35:56;;;;;;;8.95;2.62;;;19.20;33.50;;;;;;1987556;72;21521;-57
2022/04/19 09:38:38;;;;;;;5.67;2.33;;;19.10;34.20;;;;;;1980744;72;21152;-58
2022/04/19 09:41:09;;;;;;;4.80;2.87;;;19.10;33.60;;;;;;1953146;72;21583;-57
2022/04/19 09:43:37;;;;;;;4.00;2.33;;;18.90;33.60;;;;;;1953671;72;21125;-58
2022/04/19 09:46:05;;;;;;;5.50;2.25;;;18.90;33.90;;;;;;1953883;72;21061;-57
2022/04/19 09:48:36;;;;;;;5.28;2.30;;;18.90;34.50;;;;;;1969727;72;21681;-57
2022/04/19 09:51:10;;;;;;;4.67;2.70;;;18.90;33.90;;;;;;1968250;72;21618;-56
2022/04/19 09:53:44;;;;;;;3.15;1.80;;;18.90;34.00;;;;;;1979981;72;21129;-58
2022/04/19 09:56:17;;;;;;;4.90;2.40;;;19.00;33.90;;;;;;1976150;71;21130;-58
2022/04/19 09:58:45;;;;;;;3.27;2.08;;;19.00;33.90;;;;;;1953632;71;21041;-57
2022/04/19 10:09:33;;;;;;;6.25;2.22;;;19.00;33.90;;;;;;1964615;72;21114;-58
2022/04/19 10:12:01;;;;;;;3.25;1.98;;;19.10;33.80;;;;;;1953740;72;21046;-58
2022/04/19 10:14:30;;;;;;;4.85;1.80;;;19.00;33.60;;;;;;1953621;72;21662;-58
2022/04/19 10:16:58;;;;;;;2.85;2.12;;;19.00;33.70;;;;;;1967374;72;21148;-57
2022/04/19 10:19:27;;;;;;;3.05;1.90;;;19.00;33.80;;;;;;1963184;72;21097;-58
2022/04/19 10:21:55;;;;;;;2.20;1.72;;;19.00;33.90;;;;;;1976715;72;21113;-57
2022/04/19 10:24:23;;;;;;;11.83;2.35;;;19.00;34.20;;;;;;1953459;72;21611;-59
2022/04/19 10:26:51;;;;;;;6.03;2.77;;;19.20;34.20;;;;;;1955605;72;21097;-56
2022/04/19 10:29:26;;;;;;;4.60;2.37;;;19.20;34.20;;;;;;1953466;72;21167;-56
2022/04/19 10:32:19;;;;;;;3.83;1.82;;;19.20;33.60;;;;;;1966636;72;21155;-57
2022/04/19 10:34:46;;;;;;;8.35;2.05;;;19.10;33.60;;;;;;1967956;72;21382;-57
2022/04/19 10:37:19;;;;;;;6.15;2.17;;;19.00;33.70;;;;;;1925829;73;21093;-58
2022/04/19 10:39:51;;;;;;;4.40;2.05;;;18.90;34.00;;;;;;1963715;72;22213;-53
2022/04/19 10:42:34;;;;;;;10.00;2.95;;;19.00;34.30;;;;;;1976669;72;21713;-56
2022/04/19 10:45:17;;;;;;;5.03;2.15;;;19.00;33.80;;;;;;1977927;72;21115;-52
2022/04/19 10:47:57;;;;;;;8.23;2.42;;;19.10;33.80;;;;;;1987063;72;21113;-56
2022/04/19 10:50:44;;;;;;;7.37;2.27;;;19.10;33.80;;;;;;1964842;71;21450;-58
2022/04/19 10:53:11;;;;;;;12.45;2.50;;;19.10;33.50;;;;;;1965577;72;21210;-58
2022/04/19 10:55:39;;;;;;;7.55;2.00;;;19.10;33.80;;;;;;1953502;72;21089;-59
2022/04/19 10:58:23;;;;;;;2.77;1.80;;;19.10;33.70;;;;;;1990045;71;21081;-58
2022/04/19 11:01:05;;;;;;;5.00;1.60;;;19.10;33.80;;;;;;1986991;72;21568;-59
2022/04/19 11:03:46;;;;;;;5.40;2.08;;;19.10;33.50;;;;;;1986598;72;21125;-58
2022/04/19 11:06:31;;;;;;;4.53;2.30;;;19.10;33.50;;;;;;1985901;71;21157;-59
2022/04/19 11:09:19;;;;;;;13.93;2.62;;;19.20;34.20;;;;;;1971928;72;21124;-60
2022/04/19 11:11:58;;;;;;;5.55;1.55;;;19.20;34.50;;;;;;1964539;72;21066;-59
2022/04/19 11:14:41;;;;;;;3.90;2.00;;;19.20;33.60;;;;;;1951142;72;21183;-59
2022/04/19 11:17:26;;;;;;;4.67;1.70;;;19.40;33.40;;;;;;1976519;72;21042;-59
2022/04/19 11:19:59;;;;;;;5.05;1.90;;;19.40;33.20;;;;;;1986809;72;21074;-58
2022/04/19 11:22:48;;;;;;;4.87;1.60;;;19.50;33.40;;;;;;1955628;72;21101;-61
2022/04/19 11:25:15;;;;;;;3.77;1.80;;;19.60;33.40;;;;;;1974361;72;21084;-60
2022/04/19 11:27:58;;;;;;;3.72;1.67;;;19.60;33.50;;;;;;1964000;72;21105;-61
2022/04/19 11:30:26;;;;;;;3.52;1.40;;;19.70;33.20;;;;;;1979370;72;21039;-59
2022/04/19 11:32:55;;;;;;;4.08;1.90;;;19.70;33.10;;;;;;1987141;72;21102;-59
2022/04/19 11:35:23;;;;;;;4.20;2.55;;;19.60;32.80;;;;;;1986219;72;21089;-60
2022/04/19 11:37:50;;;;;;;5.45;1.82;;;19.40;32.90;;;;;;1986401;72;21339;-59
2022/04/19 11:48:44;;;;;;;4.35;1.50;;;19.50;33.00;;;;;;1986980;72;21239;-59
2022/04/19 11:51:10;;;;;;;4.25;1.50;;;19.60;32.80;;;;;;1987185;72;21567;-59
2022/04/19 11:53:38;;;;;;;1.82;1.42;;;19.50;32.80;;;;;;1987298;72;21113;-59
2022/04/19 11:56:06;;;;;;;2.02;1.50;;;19.50;32.80;;;;;;1987268;72;21093;-58
2022/04/19 11:58:35;;;;;;;3.60;1.60;;;19.40;32.80;;;;;;1967452;72;21672;-59
2022/04/19 12:01:07;;;;;;;2.87;1.50;;;19.50;33.40;;;;;;1963609;72;21166;-60
2022/04/19 12:03:36;;;;;;;3.02;1.67;;;19.50;33.00;;;;;;1959761;72;21129;-59
2022/04/19 12:06:11;;;;;;;5.03;1.35;;;19.60;33.10;;;;;;1976629;72;21090;-61
2022/04/19 12:08:41;;;;;;;5.95;1.37;;;19.70;33.20;;;;;;1981816;72;21066;-59
2022/04/19 12:11:13;;;;;;;4.45;1.25;;;19.80;33.10;;;;;;1960871;72;21094;-60
2022/04/19 12:13:42;;;;;;;7.65;1.25;;;19.80;32.70;;;;;;1953476;72;21066;-59
2022/04/19 12:16:33;;;;;;;8.83;1.50;;;19.70;32.50;;;;;;1985085;72;21665;-59
2022/04/19 12:18:59;;;;;;;3.17;1.20;;;19.70;32.90;;;;;;1978888;72;21247;-61
2022/04/19 12:21:46;;;;;;;5.25;1.15;;;19.80;32.60;;;;;;1975886;72;21151;-59
2022/04/19 12:24:24;;;;;;;8.40;1.40;;;19.90;32.70;;;;;;1976116;72;21226;-59
2022/04/19 12:27:06;;;;;;;5.50;1.35;;;20.00;32.60;;;;;;1966229;72;21531;-58
2022/04/19 12:29:35;;;;;;;2.80;1.10;;;20.00;32.60;;;;;;1955361;72;21528;-58
2022/04/19 12:32:03;;;;;;;2.42;1.40;;;20.00;32.60;;;;;;1975445;72;21694;-58
2022/04/19 12:34:37;;;;;;;2.47;1.15;;;20.00;32.20;;;;;;1965244;72;21030;-59
2022/04/19 12:37:10;;;;;;;1.30;1.05;;;20.00;32.70;;;;;;1976545;72;21654;-59
2022/04/19 12:39:37;;;;;;;1.80;0.95;;;20.10;32.40;;;;;;1956421;72;21067;-59
2022/04/19 12:42:09;;;;;;;1.20;0.85;;;20.10;32.60;;;;;;1976548;72;21121;-60
2022/04/19 12:44:37;;;;;;;1.67;1.10;;;20.10;32.30;;;;;;1969987;72;21090;-58
2022/04/19 12:47:14;;;;;;;2.15;0.93;;;20.10;32.20;;;;;;1976622;72;21089;-59
2022/04/19 12:49:47;;;;;;;4.37;1.20;;;20.10;32.00;;;;;;1976469;72;21085;-59
2022/04/19 12:52:15;;;;;;;2.80;1.30;;;20.10;32.00;;;;;;1975560;72;21105;-59
2022/04/19 12:54:45;;;;;;;1.30;0.88;;;20.20;32.00;;;;;;1976291;72;21564;-58
2022/04/19 12:57:14;;;;;;;2.37;1.12;;;20.10;31.90;;;;;;1954152;72;21126;-58
2022/04/19 12:59:46;;;;;;;4.55;1.32;;;20.10;32.00;;;;;;1973903;72;21198;-59
2022/04/19 13:02:14;;;;;;;4.40;1.15;;;20.10;31.70;;;;;;1971466;72;21360;-59
2022/04/19 13:04:40;;;;;;;1.52;1.10;;;20.10;32.10;;;;;;1967169;72;21082;-58
2022/04/19 13:13:16;;;;;;;1.80;1.07;;;20.30;31.90;;;;;;1849548;77;21713;-59
2022/04/19 13:15:43;;;;;;;2.72;1.20;;;20.30;32.50;;;;;;1858490;77;21096;-59
2022/04/19 13:18:10;;;;;;;3.67;1.27;;;20.30;32.00;;;;;;1857764;77;21135;-60
2022/04/19 13:20:38;;;;;;;1.45;1.05;;;20.30;31.70;;;;;;1857864;77;21116;-59
2022/04/19 13:23:05;;;;;;;2.60;1.02;;;20.20;31.70;;;;;;1849948;77;21225;-60
2022/04/19 13:25:35;;;;;;;3.50;1.32;;;20.20;31.60;;;;;;1836163;77;22211;-62
2022/04/19 13:28:01;;;;;;;1.30;1.20;;;20.10;31.30;;;;;;1852459;77;21143;-60
2022/04/19 13:30:30;;;;;;;3.20;1.07;;;20.00;31.40;;;;;;1858598;77;21186;-61
2022/04/19 13:32:58;;;;;;;1.62;1.02;;;20.00;32.40;;;;;;1858618;77;21695;-59
2022/04/19 13:35:25;;;;;;;1.15;0.90;;;20.00;32.10;;;;;;1858456;77;21184;-59
2022/04/19 13:40:38;;;;;;;1.60;1.00;;;19.90;30.30;;;;;;1831672;77;21257;-60
2022/04/19 13:43:05;;;;;;;4.15;1.07;;;20.00;31.60;;;;;;1836601;77;21731;-59
2022/04/19 13:45:33;;;;;;;3.80;1.20;;;20.10;30.90;;;;;;1835410;77;21409;-59
2022/04/19 13:48:01;;;;;;;5.50;1.35;;;20.00;30.40;;;;;;1836076;77;22301;-59
2022/04/19 13:50:28;;;;;;;4.10;1.40;;;20.00;30.60;;;;;;1836803;77;21715;-59